Time;durP1;ratioP1;P1;durP2;ratioP2;P2;SDS_P1;SDS_P2;PMS_P1;PMS_P2;Temp;Humidity;BMP_temperature;BMP_pressure;BME280_temperature;BME280_humidity;BME280_pressure;Samples;Min_cycle;Max_cycle;Signal;HPM_P1;HPM_P2
2022/10/30 00:00:24;;;;;;;29.05;12.60;;;;;;;;;;4983449;28;20113;-68
2022/10/30 00:02:50;;;;;;;34.67;12.18;;;;;;;;;;4977793;28;20046;-69
2022/10/30 00:05:16;;;;;;;33.53;12.10;;;;;;;;;;4979553;28;20034;-69
2022/10/30 00:07:42;;;;;;;27.10;13.02;;;;;;;;;;4983227;28;20104;-69
2022/10/30 00:10:08;;;;;;;35.88;13.27;;;;;;;;;;4981768;28;20050;-69
2022/10/30 00:12:34;;;;;;;30.15;12.10;;;;;;;;;;4982867;28;20057;-69
2022/10/30 00:15:01;;;;;;;31.42;12.43;;;;;;;;;;4980251;28;20572;-69
2022/10/30 00:17:27;;;;;;;31.20;13.32;;;;;;;;;;4979930;28;20034;-69
2022/10/30 00:19:53;;;;;;;34.83;13.45;;;;;;;;;;4981955;28;20538;-69
2022/10/30 00:22:19;;;;;;;31.92;12.82;;;;;;;;;;4983020;28;20031;-69
2022/10/30 00:24:45;;;;;;;30.38;13.32;;;;;;;;;;4979303;28;20029;-69
2022/10/30 00:27:11;;;;;;;28.75;13.65;;;;;;;;;;4980821;28;21984;-69
2022/10/30 00:29:37;;;;;;;34.97;12.38;;;;;;;;;;4968756;28;20114;-67
2022/10/30 00:32:03;;;;;;;35.50;12.48;;;;;;;;;;4982320;28;20034;-69
2022/10/30 00:34:29;;;;;;;25.83;12.52;;;;;;;;;;4962745;28;20409;-69
2022/10/30 00:36:55;;;;;;;27.98;13.05;;;;;;;;;;4985119;28;20034;-69
2022/10/30 00:39:21;;;;;;;28.10;13.90;;;;;;;;;;4977837;28;20122;-69
2022/10/30 00:41:47;;;;;;;33.72;13.60;;;;;;;;;;4981013;28;20488;-69
2022/10/30 00:44:32;;;;;;;23.95;12.23;;;;;;;;;;4974031;28;20035;-69
2022/10/30 00:47:03;;;;;;;28.08;12.35;;;;;;;;;;4967213;28;20063;-69
2022/10/30 00:49:29;;;;;;;;;;;;;;;;;;4983409;28;20377;-67
2022/10/30 00:51:55;;;;;;;30.67;13.70;;;;;;;;;;4980299;28;19913;-69
2022/10/30 00:54:21;;;;;;;29.95;13.52;;;;;;;;;;4978300;28;20034;-69
2022/10/30 00:56:48;;;;;;;33.10;13.38;;;;;;;;;;4965354;28;20031;-68
2022/10/30 00:59:16;;;;;;;28.45;13.65;;;;;;;;;;4980256;28;21502;-68
2022/10/30 01:01:45;;;;;;;33.78;12.82;;;;;;;;;;4976256;28;20023;-68
2022/10/30 01:04:12;;;;;;;28.23;12.80;;;;;;;;;;4979052;28;20030;-68
2022/10/30 01:06:39;;;;;;;31.30;12.27;;;;;;;;;;4979930;28;20690;-69
2022/10/30 01:09:05;;;;;;;33.30;12.63;;;;;;;;;;4978462;28;20086;-68
2022/10/30 01:11:31;;;;;;;29.90;14.15;;;;;;;;;;4967345;28;20038;-68
2022/10/30 01:14:00;;;;;;;27.98;13.40;;;;;;;;;;4982222;28;20034;-68
2022/10/30 01:16:26;;;;;;;34.92;13.25;;;;;;;;;;4976998;28;21393;-69
2022/10/30 01:18:59;;;;;;;31.20;12.75;;;;;;;;;;4980275;28;20031;-68
2022/10/30 01:21:40;;;;;;;37.38;13.82;;;;;;;;;;4968448;28;20042;-68
2022/10/30 01:24:06;;;;;;;26.92;13.45;;;;;;;;;;4981602;28;20084;-67
2022/10/30 01:26:32;;;;;;;28.95;13.55;;;;;;;;;;4983068;28;20121;-67
2022/10/30 01:29:22;;;;;;;34.20;13.45;;;;;;;;;;4982590;28;20085;-67
2022/10/30 01:32:03;;;;;;;33.85;13.10;;;;;;;;;;4982329;28;20026;-68
2022/10/30 01:34:41;;;;;;;36.83;14.30;;;;;;;;;;4983975;28;20493;-68
2022/10/30 01:37:28;;;;;;;28.52;13.90;;;;;;;;;;4981897;28;20030;-68
2022/10/30 01:39:54;;;;;;;31.25;13.38;;;;;;;;;;4962138;28;20049;-68
2022/10/30 01:42:38;;;;;;;30.30;12.48;;;;;;;;;;4980517;28;20030;-68
2022/10/30 01:45:04;;;;;;;35.08;13.88;;;;;;;;;;4985881;28;20142;-67
2022/10/30 01:47:40;;;;;;;37.00;13.45;;;;;;;;;;4981689;28;20023;-68
2022/10/30 01:50:26;;;;;;;37.63;14.50;;;;;;;;;;4982057;28;20065;-68
2022/10/30 01:52:52;;;;;;;29.85;13.18;;;;;;;;;;4982387;28;20586;-68
2022/10/30 01:55:27;;;;;;;40.67;15.63;;;;;;;;;;4980940;28;20809;-68
2022/10/30 01:58:13;;;;;;;31.55;13.57;;;;;;;;;;4980411;28;20510;-68
2022/10/30 02:00:40;;;;;;;33.28;14.60;;;;;;;;;;4983095;28;20038;-68
2022/10/30 02:03:06;;;;;;;43.10;15.07;;;;;;;;;;4984540;28;20081;-68
2022/10/30 02:05:37;;;;;;;30.95;14.77;;;;;;;;;;4981069;28;20057;-68
2022/10/30 02:08:03;;;;;;;28.77;14.25;;;;;;;;;;4982407;28;20051;-68
2022/10/30 02:10:30;;;;;;;31.67;14.70;;;;;;;;;;4977893;28;20474;-68
2022/10/30 02:12:56;;;;;;;33.50;14.43;;;;;;;;;;4987483;28;20042;-69
2022/10/30 02:15:22;;;;;;;29.50;14.10;;;;;;;;;;4980691;28;20057;-70
2022/10/30 02:17:48;;;;;;;34.75;14.07;;;;;;;;;;4986317;28;20077;-69
2022/10/30 02:20:16;;;;;;;33.92;14.98;;;;;;;;;;4981821;28;20401;-70
2022/10/30 02:22:42;;;;;;;38.35;14.75;;;;;;;;;;4982328;28;20039;-69
2022/10/30 02:25:08;;;;;;;29.98;14.43;;;;;;;;;;4985833;28;20038;-68
2022/10/30 02:27:34;;;;;;;37.53;15.18;;;;;;;;;;4978733;28;20499;-69
2022/10/30 02:30:00;;;;;;;31.10;14.95;;;;;;;;;;4984814;28;20039;-69
2022/10/30 02:32:26;;;;;;;28.60;15.55;;;;;;;;;;4985465;28;20474;-69
2022/10/30 02:34:52;;;;;;;40.05;15.00;;;;;;;;;;4984644;28;20034;-68
2022/10/30 02:37:18;;;;;;;34.45;14.77;;;;;;;;;;4983356;28;21787;-68
2022/10/30 02:39:44;;;;;;;32.38;14.35;;;;;;;;;;4965026;28;20145;-67
2022/10/30 02:42:10;;;;;;;29.27;14.52;;;;;;;;;;4982501;28;20116;-66
2022/10/30 02:44:36;;;;;;;29.23;15.13;;;;;;;;;;4983656;28;20069;-69
2022/10/30 02:47:02;;;;;;;32.60;15.57;;;;;;;;;;4981772;28;20037;-67
2022/10/30 02:49:28;;;;;;;34.92;15.93;;;;;;;;;;4986480;28;20501;-69
2022/10/30 02:51:54;;;;;;;37.75;15.65;;;;;;;;;;4963482;28;20117;-67
2022/10/30 02:54:20;;;;;;;29.83;14.85;;;;;;;;;;4983521;28;20038;-67
2022/10/30 02:56:46;;;;;;;32.70;15.07;;;;;;;;;;4982294;28;20174;-68
2022/10/30 02:59:12;;;;;;;30.83;15.32;;;;;;;;;;4983165;28;20064;-68
2022/10/30 03:01:38;;;;;;;41.83;15.70;;;;;;;;;;4978022;28;20084;-68
2022/10/30 03:04:04;;;;;;;37.25;15.45;;;;;;;;;;4980901;28;20129;-68
2022/10/30 03:06:30;;;;;;;42.15;16.30;;;;;;;;;;4985921;28;20031;-68
2022/10/30 03:08:56;;;;;;;29.80;15.50;;;;;;;;;;4964360;28;20141;-68
2022/10/30 03:11:22;;;;;;;35.13;16.17;;;;;;;;;;4982883;28;20039;-68
2022/10/30 03:13:48;;;;;;;38.92;16.63;;;;;;;;;;4980247;28;20181;-68
2022/10/30 03:16:19;;;;;;;37.90;17.23;;;;;;;;;;4981093;28;20038;-68
2022/10/30 03:18:45;;;;;;;34.88;17.25;;;;;;;;;;4980448;28;20027;-68
2022/10/30 03:21:13;;;;;;;30.55;16.65;;;;;;;;;;4982791;28;20046;-68
2022/10/30 03:23:39;;;;;;;29.55;15.88;;;;;;;;;;4981480;28;20037;-68
2022/10/30 03:26:05;;;;;;;33.65;16.33;;;;;;;;;;4983164;28;20069;-68
2022/10/30 03:28:31;;;;;;;35.83;16.88;;;;;;;;;;4980206;28;20030;-68
2022/10/30 03:31:05;;;;;;;36.40;16.60;;;;;;;;;;4977589;28;20026;-68
2022/10/30 03:33:31;;;;;;;39.30;15.95;;;;;;;;;;4979598;28;20068;-68
2022/10/30 03:35:57;;;;;;;37.70;18.58;;;;;;;;;;4981236;28;20557;-68
2022/10/30 03:38:23;;;;;;;33.03;17.30;;;;;;;;;;4966345;28;20497;-68
2022/10/30 03:40:49;;;;;;;37.88;19.58;;;;;;;;;;4975840;28;20489;-68
2022/10/30 03:43:16;;;;;;;43.15;19.50;;;;;;;;;;4983808;28;20598;-67
2022/10/30 03:45:46;;;;;;;34.78;18.30;;;;;;;;;;4984858;28;20022;-67
2022/10/30 03:48:12;;;;;;;38.65;17.98;;;;;;;;;;4981006;28;20027;-68
2022/10/30 03:50:38;;;;;;;36.22;18.52;;;;;;;;;;4984964;28;20045;-67
2022/10/30 03:53:04;;;;;;;40.90;19.20;;;;;;;;;;4985758;28;20030;-67
2022/10/30 03:55:30;;;;;;;41.45;19.08;;;;;;;;;;4986917;28;20031;-67
2022/10/30 03:57:56;;;;;;;39.38;19.42;;;;;;;;;;4983019;28;20049;-67
2022/10/30 04:00:22;;;;;;;42.38;21.25;;;;;;;;;;4984888;28;20486;-68
2022/10/30 04:02:49;;;;;;;38.83;19.38;;;;;;;;;;4979683;28;20101;-67
2022/10/30 04:05:15;;;;;;;40.53;20.63;;;;;;;;;;4979666;28;20540;-67
2022/10/30 04:07:41;;;;;;;38.58;20.40;;;;;;;;;;4977971;28;20517;-67
2022/10/30 04:10:08;;;;;;;41.28;20.35;;;;;;;;;;4981746;28;20501;-67
2022/10/30 04:12:34;;;;;;;45.35;21.60;;;;;;;;;;4985280;28;20137;-67
2022/10/30 04:14:59;;;;;;;41.60;21.60;;;;;;;;;;4986795;28;20134;-67
2022/10/30 04:17:25;;;;;;;50.72;22.13;;;;;;;;;;4984985;28;20560;-67
2022/10/30 04:19:51;;;;;;;53.40;22.65;;;;;;;;;;4977401;28;20574;-67
2022/10/30 04:22:17;;;;;;;48.35;22.48;;;;;;;;;;4984567;28;20053;-68
2022/10/30 04:24:44;;;;;;;43.63;22.50;;;;;;;;;;4977356;28;20474;-67
2022/10/30 04:27:12;;;;;;;43.97;23.45;;;;;;;;;;4975168;28;20412;-67
2022/10/30 04:29:38;;;;;;;48.60;22.63;;;;;;;;;;4979727;28;20092;-69
2022/10/30 04:32:04;;;;;;;46.42;22.75;;;;;;;;;;4981496;28;20027;-68
2022/10/30 04:34:30;;;;;;;47.42;22.13;;;;;;;;;;4981613;28;20120;-69
2022/10/30 04:36:56;;;;;;;46.17;23.85;;;;;;;;;;4977678;28;20474;-69
2022/10/30 04:39:22;;;;;;;60.45;24.50;;;;;;;;;;4981151;28;20037;-69
2022/10/30 04:41:48;;;;;;;56.15;25.08;;;;;;;;;;4962046;28;20039;-69
2022/10/30 04:44:14;;;;;;;45.85;21.23;;;;;;;;;;4979498;28;20015;-69
2022/10/30 04:46:40;;;;;;;56.55;24.40;;;;;;;;;;4984487;28;20032;-69
2022/10/30 04:49:06;;;;;;;46.47;24.17;;;;;;;;;;4978556;28;20023;-69
2022/10/30 04:51:32;;;;;;;40.00;24.13;;;;;;;;;;4975167;28;20092;-69
2022/10/30 04:53:58;;;;;;;59.22;24.10;;;;;;;;;;4950884;28;20035;-69
2022/10/30 04:56:24;;;;;;;58.50;26.20;;;;;;;;;;4984085;28;20127;-69
2022/10/30 04:58:51;;;;;;;46.72;24.50;;;;;;;;;;4983356;28;20060;-68
2022/10/30 05:01:17;;;;;;;56.78;25.67;;;;;;;;;;4973374;28;20128;-69
2022/10/30 05:03:43;;;;;;;51.90;26.52;;;;;;;;;;4977440;28;20510;-69
2022/10/30 05:06:16;;;;;;;56.85;27.60;;;;;;;;;;4985309;28;20038;-69
2022/10/30 05:08:42;;;;;;;47.80;26.38;;;;;;;;;;4982416;28;20078;-69
2022/10/30 05:11:08;;;;;;;47.80;25.55;;;;;;;;;;4987426;28;20046;-69
2022/10/30 05:13:34;;;;;;;60.00;28.25;;;;;;;;;;4986486;28;21748;-69
2022/10/30 05:16:00;;;;;;;52.20;26.63;;;;;;;;;;4981968;28;20066;-68
2022/10/30 05:18:26;;;;;;;61.17;27.58;;;;;;;;;;4985146;28;20030;-69
2022/10/30 05:20:52;;;;;;;54.90;28.95;;;;;;;;;;4969875;28;20031;-69
2022/10/30 05:23:18;;;;;;;56.20;28.85;;;;;;;;;;4982769;28;20034;-68
2022/10/30 05:25:44;;;;;;;57.90;27.80;;;;;;;;;;4984948;28;20037;-68
2022/10/30 05:28:10;;;;;;;66.68;29.30;;;;;;;;;;4967495;28;20152;-68
2022/10/30 05:30:36;;;;;;;59.75;29.13;;;;;;;;;;4984075;28;20062;-69
2022/10/30 05:33:04;;;;;;;55.47;29.17;;;;;;;;;;4985036;28;20491;-69
2022/10/30 05:35:31;;;;;;;60.47;29.77;;;;;;;;;;4984307;28;20038;-69
2022/10/30 05:37:57;;;;;;;67.03;31.45;;;;;;;;;;4982612;28;20049;-68
2022/10/30 05:40:23;;;;;;;63.95;31.80;;;;;;;;;;4987241;28;20512;-69
2022/10/30 05:42:50;;;;;;;60.58;33.30;;;;;;;;;;4982606;28;20034;-69
2022/10/30 05:45:16;;;;;;;67.93;32.60;;;;;;;;;;4965824;28;20559;-69
2022/10/30 05:47:42;;;;;;;63.75;32.50;;;;;;;;;;4984086;28;20109;-69
2022/10/30 05:50:10;;;;;;;62.05;32.67;;;;;;;;;;4981164;28;20413;-69
2022/10/30 05:52:37;;;;;;;67.47;33.35;;;;;;;;;;4982384;28;20071;-69
2022/10/30 05:55:03;;;;;;;75.75;33.30;;;;;;;;;;4976059;28;20047;-69
2022/10/30 05:57:31;;;;;;;67.43;34.05;;;;;;;;;;4984544;28;20027;-69
2022/10/30 05:59:58;;;;;;;73.95;35.15;;;;;;;;;;4968891;28;20029;-68
2022/10/30 06:02:24;;;;;;;81.10;36.33;;;;;;;;;;4970957;28;20061;-69
2022/10/30 06:04:50;;;;;;;72.63;34.53;;;;;;;;;;4981535;28;20057;-68
2022/10/30 06:07:16;;;;;;;68.20;35.67;;;;;;;;;;4987093;28;20031;-69
2022/10/30 06:09:42;;;;;;;73.45;35.60;;;;;;;;;;4985019;28;20040;-69
2022/10/30 06:12:08;;;;;;;69.80;35.05;;;;;;;;;;4984309;28;20046;-69
2022/10/30 06:14:34;;;;;;;63.55;34.60;;;;;;;;;;4981676;28;20034;-69
2022/10/30 06:17:00;;;;;;;69.40;35.38;;;;;;;;;;4978819;28;20141;-69
2022/10/30 06:19:26;;;;;;;67.03;35.15;;;;;;;;;;4980942;28;20050;-69
2022/10/30 06:21:53;;;;;;;75.20;36.45;;;;;;;;;;4984924;28;20023;-69
2022/10/30 06:24:19;;;;;;;78.10;36.83;;;;;;;;;;4984643;28;20023;-69
2022/10/30 06:26:45;;;;;;;71.32;36.50;;;;;;;;;;4967094;28;20543;-69
2022/10/30 06:29:11;;;;;;;78.72;37.55;;;;;;;;;;4987421;28;20027;-69
2022/10/30 06:31:37;;;;;;;77.85;38.42;;;;;;;;;;4979146;28;20039;-69
2022/10/30 06:34:04;;;;;;;78.55;38.00;;;;;;;;;;4987084;28;20036;-69
2022/10/30 06:36:30;;;;;;;75.93;38.40;;;;;;;;;;4986246;28;20030;-69
2022/10/30 06:38:56;;;;;;;84.55;38.88;;;;;;;;;;4985327;28;20043;-68
2022/10/30 06:41:22;;;;;;;75.18;38.28;;;;;;;;;;4975140;28;20042;-68
2022/10/30 06:43:48;;;;;;;72.82;38.83;;;;;;;;;;4976531;28;20045;-68
2022/10/30 06:46:14;;;;;;;86.40;40.53;;;;;;;;;;4984205;28;20034;-68
2022/10/30 06:48:40;;;;;;;81.57;38.80;;;;;;;;;;4982259;28;20030;-68
2022/10/30 06:51:06;;;;;;;77.68;38.72;;;;;;;;;;4968131;28;20496;-68
2022/10/30 06:53:32;;;;;;;94.32;41.95;;;;;;;;;;4970188;28;20026;-68
2022/10/30 06:56:02;;;;;;;90.13;42.08;;;;;;;;;;4980378;28;20038;-68
2022/10/30 06:58:28;;;;;;;90.22;42.53;;;;;;;;;;4984078;28;20073;-68
2022/10/30 07:00:54;;;;;;;86.53;41.05;;;;;;;;;;4984412;28;20118;-68
2022/10/30 07:03:21;;;;;;;83.28;41.80;;;;;;;;;;4984129;28;20088;-68
2022/10/30 07:05:47;;;;;;;84.43;41.13;;;;;;;;;;4968604;28;20022;-68
2022/10/30 07:08:13;;;;;;;77.07;41.35;;;;;;;;;;4981511;28;20478;-68
2022/10/30 07:10:41;;;;;;;80.00;39.63;;;;;;;;;;4979401;28;20035;-68
2022/10/30 07:13:08;;;;;;;72.50;36.78;;;;;;;;;;4982795;28;20060;-69
2022/10/30 07:15:34;;;;;;;85.43;41.47;;;;;;;;;;4984732;28;20045;-68
2022/10/30 07:18:04;;;;;;;73.75;38.42;;;;;;;;;;4985450;28;20046;-68
2022/10/30 07:20:31;;;;;;;78.70;40.45;;;;;;;;;;4979516;28;20038;-68
2022/10/30 07:22:57;;;;;;;65.55;35.70;;;;;;;;;;4983493;28;20026;-68
2022/10/30 07:25:23;;;;;;;71.35;36.00;;;;;;;;;;4986144;28;20038;-68
2022/10/30 07:27:50;;;;;;;61.22;34.10;;;;;;;;;;4982957;28;20045;-68
2022/10/30 07:30:17;;;;;;;54.42;31.75;;;;;;;;;;4961603;28;20035;-69
2022/10/30 07:32:44;;;;;;;58.40;32.17;;;;;;;;;;4982162;28;20056;-68
2022/10/30 07:35:11;;;;;;;47.55;29.17;;;;;;;;;;4983698;28;20038;-68
2022/10/30 07:37:37;;;;;;;53.08;25.60;;;;;;;;;;4969616;28;20542;-67
2022/10/30 07:40:04;;;;;;;41.75;24.08;;;;;;;;;;4983485;28;20184;-67
2022/10/30 07:42:30;;;;;;;41.83;22.75;;;;;;;;;;4985565;28;20072;-68
2022/10/30 07:44:55;;;;;;;42.30;21.58;;;;;;;;;;4983737;28;20371;-69
2022/10/30 07:47:22;;;;;;;39.10;20.23;;;;;;;;;;4981267;28;20081;-70
2022/10/30 07:49:47;;;;;;;40.10;22.10;;;;;;;;;;4964393;28;20121;-69
2022/10/30 07:52:13;;;;;;;43.10;19.50;;;;;;;;;;4983372;28;20137;-68
2022/10/30 07:54:39;;;;;;;40.97;19.73;;;;;;;;;;4979919;28;20038;-68
2022/10/30 07:57:05;;;;;;;39.78;19.42;;;;;;;;;;4984446;28;20117;-69
2022/10/30 07:59:31;;;;;;;27.52;18.13;;;;;;;;;;4983749;28;20044;-68
2022/10/30 08:01:59;;;;;;;38.75;18.17;;;;;;;;;;4985854;28;20486;-69
2022/10/30 08:04:25;;;;;;;35.55;18.88;;;;;;;;;;4983796;28;20174;-68
2022/10/30 08:06:51;;;;;;;35.58;19.23;;;;;;;;;;4986107;28;20035;-69
2022/10/30 08:09:17;;;;;;;33.13;18.55;;;;;;;;;;4984255;28;20049;-69
2022/10/30 08:11:43;;;;;;;36.45;18.45;;;;;;;;;;4981976;28;20026;-69
2022/10/30 08:14:09;;;;;;;40.13;19.63;;;;;;;;;;4982110;28;20130;-69
2022/10/30 08:16:35;;;;;;;32.78;18.63;;;;;;;;;;4985949;28;20029;-69
2022/10/30 08:19:01;;;;;;;37.03;19.05;;;;;;;;;;4984201;28;20034;-69
2022/10/30 08:21:27;;;;;;;32.33;17.75;;;;;;;;;;4980258;28;20035;-68
2022/10/30 08:23:53;;;;;;;35.53;18.25;;;;;;;;;;4981685;28;20488;-69
2022/10/30 08:26:19;;;;;;;35.58;17.85;;;;;;;;;;4976479;28;20035;-69
2022/10/30 08:28:45;;;;;;;37.30;17.73;;;;;;;;;;4980587;28;20513;-68
2022/10/30 08:31:11;;;;;;;37.58;18.08;;;;;;;;;;4980035;28;20039;-69
2022/10/30 08:33:37;;;;;;;36.08;18.30;;;;;;;;;;4981807;28;20034;-69
2022/10/30 08:36:04;;;;;;;35.10;18.60;;;;;;;;;;4978286;28;20509;-69
2022/10/30 08:38:30;;;;;;;37.25;17.42;;;;;;;;;;4985294;28;20034;-69
2022/10/30 08:40:56;;;;;;;35.42;17.17;;;;;;;;;;4964084;28;20045;-70
2022/10/30 08:43:24;;;;;;;31.55;17.20;;;;;;;;;;4983110;28;20053;-70
2022/10/30 08:45:50;;;;;;;35.22;18.05;;;;;;;;;;4982487;28;20130;-69
2022/10/30 08:48:16;;;;;;;36.75;17.30;;;;;;;;;;4982122;28;20134;-69
2022/10/30 08:50:42;;;;;;;37.75;17.17;;;;;;;;;;4981563;28;20029;-69
2022/10/30 08:53:10;;;;;;;34.22;17.23;;;;;;;;;;4980152;28;20081;-69
2022/10/30 08:55:36;;;;;;;30.67;16.80;;;;;;;;;;4982410;28;20091;-69
2022/10/30 08:58:02;;;;;;;31.45;16.60;;;;;;;;;;4980677;28;20042;-68
2022/10/30 09:00:29;;;;;;;30.15;16.85;;;;;;;;;;4983040;28;20049;-69
2022/10/30 09:02:55;;;;;;;36.63;16.75;;;;;;;;;;4982831;28;20096;-69
2022/10/30 09:05:21;;;;;;;36.28;16.65;;;;;;;;;;4986368;28;20034;-69
2022/10/30 09:07:47;;;;;;;36.47;16.80;;;;;;;;;;4982494;28;20305;-69
2022/10/30 09:10:13;;;;;;;38.30;16.73;;;;;;;;;;4982618;28;20019;-68
2022/10/30 09:12:39;;;;;;;33.60;16.48;;;;;;;;;;4979171;28;20057;-68
2022/10/30 09:15:06;;;;;;;31.52;16.58;;;;;;;;;;4972503;28;20065;-69
2022/10/30 09:17:32;;;;;;;31.50;15.73;;;;;;;;;;4962837;28;20030;-69
2022/10/30 09:19:58;;;;;;;36.95;17.15;;;;;;;;;;4961430;28;20055;-69
2022/10/30 09:22:24;;;;;;;30.58;16.23;;;;;;;;;;4985132;28;20030;-69
2022/10/30 09:24:50;;;;;;;30.35;16.55;;;;;;;;;;4983586;28;20045;-69
2022/10/30 09:27:16;;;;;;;28.23;16.15;;;;;;;;;;4950751;28;21485;-69
2022/10/30 09:29:42;;;;;;;34.35;15.75;;;;;;;;;;4984499;28;20035;-69
2022/10/30 09:32:09;;;;;;;34.85;15.73;;;;;;;;;;4985830;28;20040;-69
2022/10/30 09:34:37;;;;;;;32.13;16.13;;;;;;;;;;4965897;28;20034;-68
2022/10/30 09:37:03;;;;;;;36.13;15.48;;;;;;;;;;4982391;28;20034;-69
2022/10/30 09:39:29;;;;;;;35.60;16.40;;;;;;;;;;4985283;28;20034;-69
2022/10/30 09:42:07;;;;;;;28.45;14.65;;;;;;;;;;4983217;28;20037;-68
2022/10/30 09:44:39;;;;;;;35.22;15.60;;;;;;;;;;4985758;28;20026;-69
2022/10/30 09:47:19;;;;;;;41.55;17.23;;;;;;;;;;4982017;28;20035;-69
2022/10/30 09:50:02;;;;;;;28.90;16.65;;;;;;;;;;4979261;28;20030;-69
2022/10/30 09:52:37;;;;;;;35.25;15.40;;;;;;;;;;4981193;28;20994;-70
2022/10/30 09:55:12;;;;;;;35.05;15.07;;;;;;;;;;4982789;28;20529;-69
2022/10/30 09:57:47;;;;;;;28.63;14.80;;;;;;;;;;4985756;28;20030;-69
2022/10/30 10:00:16;;;;;;;36.35;15.13;;;;;;;;;;4983145;28;20045;-69
2022/10/30 10:03:01;;;;;;;37.67;17.33;;;;;;;;;;4986891;28;20042;-69
2022/10/30 10:05:44;;;;;;;26.92;15.20;;;;;;;;;;4985235;28;20037;-69
2022/10/30 10:08:14;;;;;;;29.85;13.98;;;;;;;;;;4984240;28;20105;-69
2022/10/30 10:10:42;;;;;;;27.60;14.50;;;;;;;;;;4985073;28;20045;-69
2022/10/30 10:13:17;;;;;;;29.83;13.38;;;;;;;;;;4985737;28;20524;-69
2022/10/30 10:15:49;;;;;;;33.30;14.38;;;;;;;;;;4984410;28;20089;-69
2022/10/30 10:18:22;;;;;;;27.60;14.02;;;;;;;;;;4977551;28;20033;-67
2022/10/30 10:20:51;;;;;;;35.60;13.35;;;;;;;;;;4985660;28;20050;-69
2022/10/30 10:23:36;;;;;;;27.20;13.77;;;;;;;;;;4967536;28;20089;-69
2022/10/30 10:26:09;;;;;;;31.13;13.43;;;;;;;;;;4985487;28;20089;-69
2022/10/30 10:28:35;;;;;;;24.88;13.45;;;;;;;;;;4983467;28;20409;-67
2022/10/30 10:31:07;;;;;;;30.35;12.90;;;;;;;;;;4981938;28;20488;-69
2022/10/30 10:33:40;;;;;;;42.10;15.07;;;;;;;;;;4981401;28;20039;-69
2022/10/30 10:36:23;;;;;;;28.92;13.27;;;;;;;;;;4984724;28;20034;-69
2022/10/30 10:38:49;;;;;;;33.85;12.63;;;;;;;;;;4988526;28;20026;-69
2022/10/30 10:41:17;;;;;;;26.55;12.07;;;;;;;;;;4991134;28;20030;-68
2022/10/30 10:43:53;;;;;;;29.52;12.15;;;;;;;;;;4992692;28;20038;-68
2022/10/30 10:46:48;;;;;;;32.92;12.25;;;;;;;;;;4992343;28;20030;-68
2022/10/30 10:49:25;;;;;;;36.50;11.98;;;;;;;;;;4990414;28;20390;-72
2022/10/30 10:51:51;;;;;;;28.00;11.38;;;;;;;;;;4991945;28;20085;-74
2022/10/30 10:54:23;;;;;;;32.17;11.23;;;;;;;;;;4990587;28;20042;-75
2022/10/30 10:56:49;;;;;;;32.42;10.63;;;;;;;;;;4971732;28;20026;-73
2022/10/30 10:59:42;;;;;;;33.28;11.45;;;;;;;;;;4990407;28;20085;-75
2022/10/30 11:02:08;;;;;;;24.27;11.75;;;;;;;;;;4988142;28;20049;-75
2022/10/30 11:04:41;;;;;;;30.15;11.57;;;;;;;;;;4990621;28;20042;-75
2022/10/30 11:07:17;;;;;;;27.65;12.38;;;;;;;;;;4971350;28;20283;-75
2022/10/30 11:09:43;;;;;;;30.48;12.07;;;;;;;;;;4985603;28;20042;-75
2022/10/30 11:12:09;;;;;;;27.95;11.88;;;;;;;;;;4985030;28;20098;-73
2022/10/30 11:14:37;;;;;;;31.00;12.57;;;;;;;;;;4980633;28;20417;-77
2022/10/30 11:17:23;;;;;;;29.10;11.82;;;;;;;;;;4988186;28;20481;-73
2022/10/30 11:19:51;;;;;;;31.63;11.88;;;;;;;;;;4984825;28;20049;-73
2022/10/30 11:22:19;;;;;;;27.40;12.60;;;;;;;;;;4987851;28;20019;-74
2022/10/30 11:24:45;;;;;;;25.77;11.63;;;;;;;;;;4991288;28;20022;-75
2022/10/30 11:27:24;;;;;;;25.92;11.82;;;;;;;;;;4968389;28;20512;-74
2022/10/30 11:29:58;;;;;;;27.10;12.05;;;;;;;;;;4986138;28;20022;-73
2022/10/30 11:32:26;;;;;;;26.83;11.55;;;;;;;;;;4983699;28;20030;-70
2022/10/30 11:35:08;;;;;;;25.98;12.10;;;;;;;;;;4985891;28;20080;-74
2022/10/30 11:37:35;;;;;;;28.98;11.52;;;;;;;;;;4985093;28;20038;-71
2022/10/30 11:40:05;;;;;;;28.60;11.50;;;;;;;;;;4984578;28;20030;-71
2022/10/30 11:42:31;;;;;;;28.33;12.07;;;;;;;;;;4984612;28;20030;-74
2022/10/30 11:44:57;;;;;;;23.58;12.27;;;;;;;;;;4987752;28;20505;-70
2022/10/30 11:47:36;;;;;;;28.17;11.20;;;;;;;;;;4966759;28;20526;-70
2022/10/30 11:50:04;;;;;;;29.92;11.88;;;;;;;;;;4985321;28;20313;-71
2022/10/30 11:52:35;;;;;;;25.27;11.43;;;;;;;;;;4986982;28;20069;-72
2022/10/30 11:55:08;;;;;;;22.52;11.18;;;;;;;;;;4986579;28;20400;-75
2022/10/30 11:57:54;;;;;;;23.98;10.98;;;;;;;;;;4987630;28;20481;-73
2022/10/30 12:00:22;;;;;;;25.95;10.63;;;;;;;;;;4981781;28;20069;-73
2022/10/30 12:02:52;;;;;;;25.92;11.73;;;;;;;;;;4982359;28;20041;-74
2022/10/30 12:05:38;;;;;;;24.80;11.70;;;;;;;;;;4985322;28;20056;-73
2022/10/30 12:08:08;;;;;;;26.70;11.95;;;;;;;;;;4982851;28;21714;-73
2022/10/30 12:10:52;;;;;;;33.72;11.75;;;;;;;;;;4981660;28;20549;-73
2022/10/30 12:13:19;;;;;;;26.42;10.75;;;;;;;;;;4981411;28;20035;-75
2022/10/30 12:15:46;;;;;;;29.38;10.48;;;;;;;;;;4979373;28;20037;-73
2022/10/30 12:18:18;;;;;;;25.20;10.80;;;;;;;;;;4985864;28;20632;-73
2022/10/30 12:20:45;;;;;;;23.83;10.70;;;;;;;;;;4965068;28;20529;-73
2022/10/30 12:23:16;;;;;;;23.08;10.20;;;;;;;;;;4981517;28;20027;-73
2022/10/30 12:25:46;;;;;;;27.08;11.15;;;;;;;;;;4986164;28;20050;-73
2022/10/30 12:28:20;;;;;;;25.70;11.05;;;;;;;;;;4986055;28;20023;-74
2022/10/30 12:30:46;;;;;;;24.98;11.75;;;;;;;;;;4973838;28;20030;-73
2022/10/30 12:33:16;;;;;;;25.17;11.35;;;;;;;;;;4988894;28;20034;-73
2022/10/30 12:35:51;;;;;;;23.58;10.77;;;;;;;;;;4988276;28;20039;-74
2022/10/30 12:38:17;;;;;;;25.35;11.68;;;;;;;;;;4989623;28;20046;-73
2022/10/30 12:40:46;;;;;;;28.95;12.20;;;;;;;;;;4987573;28;20113;-73
2022/10/30 12:43:26;;;;;;;25.25;12.05;;;;;;;;;;4983911;28;20161;-74
2022/10/30 12:45:54;;;;;;;27.30;12.73;;;;;;;;;;4985799;28;20038;-73
2022/10/30 12:48:32;;;;;;;31.83;12.75;;;;;;;;;;4984046;28;20049;-73
2022/10/30 12:51:17;;;;;;;35.40;12.35;;;;;;;;;;4982294;28;20532;-72
2022/10/30 12:53:48;;;;;;;33.83;12.52;;;;;;;;;;4979930;28;20545;-73
2022/10/30 12:56:19;;;;;;;28.63;11.90;;;;;;;;;;4971423;28;20466;-73
2022/10/30 12:58:45;;;;;;;;;;;;;;;;;;4976672;28;20252;-73
2022/10/30 13:01:22;;;;;;;30.30;12.20;;;;;;;;;;4979948;28;20443;-73
2022/10/30 13:03:52;;;;;;;24.23;10.93;;;;;;;;;;4980707;28;20042;-73
2022/10/30 13:06:22;;;;;;;29.30;11.82;;;;;;;;;;4985983;28;20400;-73
2022/10/30 13:09:08;;;;;;;24.08;11.40;;;;;;;;;;4979458;28;20489;-73
2022/10/30 13:11:46;;;;;;;23.55;10.88;;;;;;;;;;4984867;28;20034;-73
2022/10/30 13:14:25;;;;;;;24.05;10.98;;;;;;;;;;4980313;28;20038;-73
2022/10/30 13:16:51;;;;;;;28.65;10.68;;;;;;;;;;4984358;28;20271;-73
2022/10/30 13:19:17;;;;;;;28.08;11.18;;;;;;;;;;4985542;28;20498;-73
2022/10/30 13:22:03;;;;;;;28.35;12.25;;;;;;;;;;4980872;28;20041;-73
2022/10/30 13:24:53;;;;;;;32.88;11.50;;;;;;;;;;4980433;28;20084;-74
2022/10/30 13:27:24;;;;;;;27.70;11.50;;;;;;;;;;4980266;28;20026;-74
2022/10/30 13:29:50;;;;;;;27.33;10.75;;;;;;;;;;4984232;28;20054;-74
2022/10/30 13:32:19;;;;;;;34.50;11.88;;;;;;;;;;4984077;28;20076;-73
2022/10/30 13:35:05;;;;;;;30.00;11.15;;;;;;;;;;4987249;28;20167;-73
2022/10/30 13:37:40;;;;;;;29.55;11.27;;;;;;;;;;4969467;28;20034;-73
2022/10/30 13:40:17;;;;;;;29.98;11.38;;;;;;;;;;4985855;28;20042;-73
2022/10/30 13:42:43;;;;;;;25.33;10.13;;;;;;;;;;4985520;28;20397;-74
2022/10/30 13:45:27;;;;;;;29.67;12.10;;;;;;;;;;4986579;28;20027;-74
2022/10/30 13:48:09;;;;;;;31.33;10.77;;;;;;;;;;4985926;28;20030;-72
2022/10/30 13:50:38;;;;;;;19.58;10.02;;;;;;;;;;4971260;28;20019;-73
2022/10/30 13:53:06;;;;;;;29.33;10.18;;;;;;;;;;4968097;28;20030;-72
2022/10/30 13:55:34;;;;;;;23.48;10.00;;;;;;;;;;4982635;28;20036;-73
2022/10/30 13:58:04;;;;;;;26.83;9.98;;;;;;;;;;4982483;28;20065;-73
2022/10/30 14:00:49;;;;;;;23.07;9.83;;;;;;;;;;4984478;28;20118;-75
2022/10/30 14:03:22;;;;;;;23.02;9.68;;;;;;;;;;4986144;28;20040;-75
2022/10/30 14:05:51;;;;;;;26.02;9.85;;;;;;;;;;4984836;28;21336;-75
2022/10/30 14:08:20;;;;;;;33.45;10.45;;;;;;;;;;4982925;28;20512;-75
2022/10/30 14:10:47;;;;;;;36.97;10.35;;;;;;;;;;4988409;28;20088;-74
2022/10/30 14:13:14;;;;;;;39.85;11.93;;;;;;;;;;4984979;28;20121;-74
2022/10/30 14:15:40;;;;;;;20.88;9.45;;;;;;;;;;4983087;28;20053;-74
2022/10/30 14:18:11;;;;;;;20.75;9.05;;;;;;;;;;4987238;28;20022;-74
2022/10/30 14:20:47;;;;;;;23.92;9.00;;;;;;;;;;4988425;28;20034;-74
2022/10/30 14:23:21;;;;;;;24.08;10.73;;;;;;;;;;4961827;28;20237;-74
2022/10/30 14:26:05;;;;;;;30.45;12.07;;;;;;;;;;4972470;28;20049;-73
2022/10/30 14:28:32;;;;;;;39.90;12.10;;;;;;;;;;4982973;28;20390;-74